sensor_id;sensor_type;location;lat;lon;timestamp;P1;durP1;ratioP1;P2;durP2;ratioP2
22219;SDS011;11279;48.364;10.904;2024-01-15T00:00:00;30.77;;;13.73;;
22219;SDS011;11279;48.364;10.904;2024-01-15T00:01:00;28.77;;;15.17;;
22219;SDS011;11279;48.364;10.904;2024-01-15T00:02:01;31.50;;;15.77;;
22219;SDS011;11279;48.364;10.904;2024-01-15T00:03:01;31.80;;;15.30;;
22219;SDS011;11279;48.364;10.904;2024-01-15T00:04:02;28.97;;;14.50;;
22219;SDS011;11279;48.364;10.904;2024-01-15T00:05:03;28.43;;;14.23;;
22219;SDS011;11279;48.364;10.904;2024-01-15T00:06:04;29.15;;;14.10;;
22219;SDS011;11279;48.364;10.904;2024-01-15T00:07:05;32.80;;;15.57;;
22219;SDS011;11279;48.364;10.904;2024-01-15T00:08:06;33.85;;;13.60;;
22219;SDS011;11279;48.364;10.904;2024-01-15T00:09:07;29.27;;;14.48;;
22219;SDS011;11279;48.364;10.904;2024-01-15T00:10:10;32.72;;;15.32;;
22219;SDS011;11279;48.364;10.904;2024-01-15T00:11:10;34.73;;;15.80;;
22219;SDS011;11279;48.364;10.904;2024-01-15T00:12:11;33.67;;;15.20;;
22219;SDS011;11279;48.364;10.904;2024-01-15T00:13:11;32.77;;;15.63;;
22219;SDS011;11279;48.364;10.904;2024-01-15T00:14:11;28.20;;;14.20;;
22219;SDS011;11279;48.364;10.904;2024-01-15T00:15:14;29.42;;;15.10;;
22219;SDS011;11279;48.364;10.904;2024-01-15T00:16:15;30.23;;;14.80;;
22219;SDS011;11279;48.364;10.904;2024-01-15T00:17:15;32.13;;;14.13;;
22219;SDS011;11279;48.364;10.904;2024-01-15T00:18:16;29.00;;;14.87;;
22219;SDS011;11279;48.364;10.904;2024-01-15T00:19:16;28.90;;;14.27;;
22219;SDS011;11279;48.364;10.904;2024-01-15T00:20:20;29.48;;;14.45;;
22219;SDS011;11279;48.364;10.904;2024-01-15T00:21:20;31.03;;;14.53;;
22219;SDS011;11279;48.364;10.904;2024-01-15T00:22:20;29.73;;;14.50;;
22219;SDS011;11279;48.364;10.904;2024-01-15T00:23:21;29.70;;;14.27;;
22219;SDS011;11279;48.364;10.904;2024-01-15T00:24:22;29.35;;;14.35;;
22219;SDS011;11279;48.364;10.904;2024-01-15T00:25:22;31.47;;;14.47;;
22219;SDS011;11279;48.364;10.904;2024-01-15T00:26:23;28.80;;;13.45;;
22219;SDS011;11279;48.364;10.904;2024-01-15T00:27:24;28.47;;;13.90;;
22219;SDS011;11279;48.364;10.904;2024-01-15T00:28:24;26.67;;;13.40;;
22219;SDS011;11279;48.364;10.904;2024-01-15T00:29:25;27.73;;;13.20;;
22219;SDS011;11279;48.364;10.904;2024-01-15T00:30:25;28.27;;;14.43;;
22219;SDS011;11279;48.364;10.904;2024-01-15T00:31:26;32.45;;;14.70;;
22219;SDS011;11279;48.364;10.904;2024-01-15T00:32:27;30.60;;;14.40;;
22219;SDS011;11279;48.364;10.904;2024-01-15T00:33:28;28.90;;;14.20;;
22219;SDS011;11279;48.364;10.904;2024-01-15T00:34:28;30.87;;;13.50;;
22219;SDS011;11279;48.364;10.904;2024-01-15T00:35:29;27.77;;;13.50;;
22219;SDS011;11279;48.364;10.904;2024-01-15T00:36:29;29.27;;;14.70;;
22219;SDS011;11279;48.364;10.904;2024-01-15T00:37:30;27.47;;;14.03;;
22219;SDS011;11279;48.364;10.904;2024-01-15T00:38:30;26.43;;;13.53;;
22219;SDS011;11279;48.364;10.904;2024-01-15T00:39:30;27.53;;;13.97;;
22219;SDS011;11279;48.364;10.904;2024-01-15T00:40:31;27.13;;;13.80;;
22219;SDS011;11279;48.364;10.904;2024-01-15T00:41:31;30.43;;;14.10;;
22219;SDS011;11279;48.364;10.904;2024-01-15T00:42:32;31.40;;;14.67;;
22219;SDS011;11279;48.364;10.904;2024-01-15T00:43:32;31.97;;;14.37;;
22219;SDS011;11279;48.364;10.904;2024-01-15T00:44:33;30.33;;;13.60;;
22219;SDS011;11279;48.364;10.904;2024-01-15T00:45:33;32.37;;;14.57;;
22219;SDS011;11279;48.364;10.904;2024-01-15T00:46:41;29.03;;;14.80;;
22219;SDS011;11279;48.364;10.904;2024-01-15T00:47:43;30.15;;;13.95;;
22219;SDS011;11279;48.364;10.904;2024-01-15T00:48:44;30.08;;;13.55;;
22219;SDS011;11279;48.364;10.904;2024-01-15T00:49:45;29.30;;;13.93;;
22219;SDS011;11279;48.364;10.904;2024-01-15T00:50:45;28.80;;;13.97;;
22219;SDS011;11279;48.364;10.904;2024-01-15T00:51:46;28.43;;;13.97;;
22219;SDS011;11279;48.364;10.904;2024-01-15T00:52:47;30.63;;;14.07;;
22219;SDS011;11279;48.364;10.904;2024-01-15T00:53:47;27.97;;;13.97;;
22219;SDS011;11279;48.364;10.904;2024-01-15T00:54:48;29.57;;;14.30;;
22219;SDS011;11279;48.364;10.904;2024-01-15T00:55:48;32.03;;;14.77;;
22219;SDS011;11279;48.364;10.904;2024-01-15T00:56:49;25.53;;;12.80;;
22219;SDS011;11279;48.364;10.904;2024-01-15T00:57:49;29.73;;;13.90;;
22219;SDS011;11279;48.364;10.904;2024-01-15T00:58:50;29.07;;;13.83;;
22219;SDS011;11279;48.364;10.904;2024-01-15T00:59:50;31.60;;;14.33;;
22219;SDS011;11279;48.364;10.904;2024-01-15T01:00:51;25.23;;;12.97;;
22219;SDS011;11279;48.364;10.904;2024-01-15T01:01:51;26.70;;;12.03;;
22219;SDS011;11279;48.364;10.904;2024-01-15T01:02:51;29.57;;;13.93;;
22219;SDS011;11279;48.364;10.904;2024-01-15T01:03:52;31.77;;;14.20;;
22219;SDS011;11279;48.364;10.904;2024-01-15T01:04:52;27.17;;;13.53;;
22219;SDS011;11279;48.364;10.904;2024-01-15T01:05:53;27.40;;;12.63;;
22219;SDS011;11279;48.364;10.904;2024-01-15T01:06:53;25.20;;;12.63;;
22219;SDS011;11279;48.364;10.904;2024-01-15T01:07:54;29.67;;;13.50;;
22219;SDS011;11279;48.364;10.904;2024-01-15T01:08:54;29.33;;;13.60;;
22219;SDS011;11279;48.364;10.904;2024-01-15T01:09:54;28.90;;;13.87;;
22219;SDS011;11279;48.364;10.904;2024-01-15T01:10:55;28.33;;;13.90;;
22219;SDS011;11279;48.364;10.904;2024-01-15T01:11:56;29.55;;;13.48;;
22219;SDS011;11279;48.364;10.904;2024-01-15T01:12:57;30.63;;;14.40;;
22219;SDS011;11279;48.364;10.904;2024-01-15T01:13:57;30.23;;;12.40;;
22219;SDS011;11279;48.364;10.904;2024-01-15T01:14:58;26.90;;;12.53;;
22219;SDS011;11279;48.364;10.904;2024-01-15T01:15:59;27.00;;;12.17;;
22219;SDS011;11279;48.364;10.904;2024-01-15T01:16:59;28.17;;;12.70;;
22219;SDS011;11279;48.364;10.904;2024-01-15T01:17:59;26.27;;;12.30;;
22219;SDS011;11279;48.364;10.904;2024-01-15T01:19:00;24.60;;;11.90;;
22219;SDS011;11279;48.364;10.904;2024-01-15T01:20:00;28.73;;;12.97;;
22219;SDS011;11279;48.364;10.904;2024-01-15T01:21:04;28.65;;;12.55;;
22219;SDS011;11279;48.364;10.904;2024-01-15T01:22:04;26.70;;;12.47;;
22219;SDS011;11279;48.364;10.904;2024-01-15T01:23:05;25.43;;;11.53;;
22219;SDS011;11279;48.364;10.904;2024-01-15T01:24:05;26.27;;;13.17;;
22219;SDS011;11279;48.364;10.904;2024-01-15T01:25:06;28.80;;;11.87;;
22219;SDS011;11279;48.364;10.904;2024-01-15T01:26:07;23.93;;;12.43;;
22219;SDS011;11279;48.364;10.904;2024-01-15T01:27:07;25.60;;;12.10;;
22219;SDS011;11279;48.364;10.904;2024-01-15T01:28:08;27.80;;;12.83;;
22219;SDS011;11279;48.364;10.904;2024-01-15T01:29:09;25.50;;;12.30;;
22219;SDS011;11279;48.364;10.904;2024-01-15T01:30:09;27.43;;;11.93;;
22219;SDS011;11279;48.364;10.904;2024-01-15T01:31:10;28.20;;;12.73;;
22219;SDS011;11279;48.364;10.904;2024-01-15T01:32:10;25.97;;;12.13;;
22219;SDS011;11279;48.364;10.904;2024-01-15T01:33:11;23.30;;;12.73;;
22219;SDS011;11279;48.364;10.904;2024-01-15T01:34:15;24.60;;;11.57;;
22219;SDS011;11279;48.364;10.904;2024-01-15T01:35:16;23.45;;;11.70;;
22219;SDS011;11279;48.364;10.904;2024-01-15T01:36:16;26.40;;;11.70;;
22219;SDS011;11279;48.364;10.904;2024-01-15T01:37:17;25.10;;;12.40;;
22219;SDS011;11279;48.364;10.904;2024-01-15T01:38:17;25.83;;;11.77;;
22219;SDS011;11279;48.364;10.904;2024-01-15T01:39:17;28.43;;;12.73;;
22219;SDS011;11279;48.364;10.904;2024-01-15T01:40:18;22.67;;;11.33;;
22219;SDS011;11279;48.364;10.904;2024-01-15T01:41:18;24.57;;;11.80;;
22219;SDS011;11279;48.364;10.904;2024-01-15T01:42:19;26.03;;;11.73;;
22219;SDS011;11279;48.364;10.904;2024-01-15T01:43:19;25.87;;;12.10;;
22219;SDS011;11279;48.364;10.904;2024-01-15T01:44:20;26.37;;;11.77;;
22219;SDS011;11279;48.364;10.904;2024-01-15T01:45:20;22.70;;;11.17;;
22219;SDS011;11279;48.364;10.904;2024-01-15T01:46:21;24.30;;;11.33;;
22219;SDS011;11279;48.364;10.904;2024-01-15T01:47:21;24.43;;;11.33;;
22219;SDS011;11279;48.364;10.904;2024-01-15T01:48:21;23.30;;;11.63;;
22219;SDS011;11279;48.364;10.904;2024-01-15T01:49:23;25.75;;;11.13;;
22219;SDS011;11279;48.364;10.904;2024-01-15T01:50:23;26.63;;;11.27;;
22219;SDS011;11279;48.364;10.904;2024-01-15T01:51:24;25.47;;;12.47;;
22219;SDS011;11279;48.364;10.904;2024-01-15T01:52:25;26.30;;;11.80;;
22219;SDS011;11279;48.364;10.904;2024-01-15T01:53:26;26.33;;;11.67;;
22219;SDS011;11279;48.364;10.904;2024-01-15T01:54:27;23.13;;;10.88;;
22219;SDS011;11279;48.364;10.904;2024-01-15T01:55:29;23.83;;;11.35;;
22219;SDS011;11279;48.364;10.904;2024-01-15T01:56:31;26.60;;;10.93;;
22219;SDS011;11279;48.364;10.904;2024-01-15T01:57:32;26.23;;;11.60;;
22219;SDS011;11279;48.364;10.904;2024-01-15T01:58:34;23.08;;;11.05;;
22219;SDS011;11279;48.364;10.904;2024-01-15T01:59:34;22.17;;;10.13;;
22219;SDS011;11279;48.364;10.904;2024-01-15T02:00:36;20.88;;;9.52;;
22219;SDS011;11279;48.364;10.904;2024-01-15T02:01:36;24.17;;;11.53;;
22219;SDS011;11279;48.364;10.904;2024-01-15T02:02:36;24.37;;;10.50;;
22219;SDS011;11279;48.364;10.904;2024-01-15T02:03:37;23.27;;;11.00;;
22219;SDS011;11279;48.364;10.904;2024-01-15T02:04:38;25.10;;;11.63;;
22219;SDS011;11279;48.364;10.904;2024-01-15T02:05:40;23.15;;;10.88;;
22219;SDS011;11279;48.364;10.904;2024-01-15T02:06:40;25.88;;;11.18;;
22219;SDS011;11279;48.364;10.904;2024-01-15T02:07:41;22.40;;;10.10;;
22219;SDS011;11279;48.364;10.904;2024-01-15T02:08:42;24.00;;;10.00;;
22219;SDS011;11279;48.364;10.904;2024-01-15T02:09:46;19.92;;;10.00;;
22219;SDS011;11279;48.364;10.904;2024-01-15T02:10:46;21.90;;;10.93;;
22219;SDS011;11279;48.364;10.904;2024-01-15T02:11:47;24.40;;;11.03;;
22219;SDS011;11279;48.364;10.904;2024-01-15T02:12:48;24.07;;;10.77;;
22219;SDS011;11279;48.364;10.904;2024-01-15T02:13:48;20.17;;;10.27;;
22219;SDS011;11279;48.364;10.904;2024-01-15T02:14:49;22.37;;;10.33;;
22219;SDS011;11279;48.364;10.904;2024-01-15T02:15:49;24.57;;;11.13;;
22219;SDS011;11279;48.364;10.904;2024-01-15T02:16:50;22.37;;;10.43;;
22219;SDS011;11279;48.364;10.904;2024-01-15T02:17:56;25.50;;;11.10;;
22219;SDS011;11279;48.364;10.904;2024-01-15T02:19:00;23.50;;;10.15;;
22219;SDS011;11279;48.364;10.904;2024-01-15T02:20:01;25.67;;;11.20;;
22219;SDS011;11279;48.364;10.904;2024-01-15T02:21:01;24.90;;;11.03;;
22219;SDS011;11279;48.364;10.904;2024-01-15T02:22:02;21.23;;;10.37;;
22219;SDS011;11279;48.364;10.904;2024-01-15T02:23:06;21.00;;;9.87;;
22219;SDS011;11279;48.364;10.904;2024-01-15T02:24:09;21.23;;;10.05;;
22219;SDS011;11279;48.364;10.904;2024-01-15T02:25:10;24.67;;;10.57;;
22219;SDS011;11279;48.364;10.904;2024-01-15T02:26:10;24.20;;;10.73;;
22219;SDS011;11279;48.364;10.904;2024-01-15T02:27:11;21.57;;;10.63;;
22219;SDS011;11279;48.364;10.904;2024-01-15T02:28:13;23.53;;;11.20;;
22219;SDS011;11279;48.364;10.904;2024-01-15T02:29:14;26.60;;;11.20;;
22219;SDS011;11279;48.364;10.904;2024-01-15T02:30:15;21.87;;;10.23;;
22219;SDS011;11279;48.364;10.904;2024-01-15T02:31:15;23.70;;;11.37;;
22219;SDS011;11279;48.364;10.904;2024-01-15T02:32:16;24.60;;;10.87;;
22219;SDS011;11279;48.364;10.904;2024-01-15T02:33:16;24.70;;;11.13;;
22219;SDS011;11279;48.364;10.904;2024-01-15T02:34:17;27.47;;;10.67;;
22219;SDS011;11279;48.364;10.904;2024-01-15T02:35:17;22.13;;;10.20;;
22219;SDS011;11279;48.364;10.904;2024-01-15T02:36:17;26.63;;;10.87;;
22219;SDS011;11279;48.364;10.904;2024-01-15T02:37:18;22.90;;;9.97;;
22219;SDS011;11279;48.364;10.904;2024-01-15T02:38:18;23.70;;;11.30;;
22219;SDS011;11279;48.364;10.904;2024-01-15T02:39:19;23.00;;;10.13;;
22219;SDS011;11279;48.364;10.904;2024-01-15T02:40:19;21.40;;;10.57;;
22219;SDS011;11279;48.364;10.904;2024-01-15T02:41:20;23.23;;;10.47;;
22219;SDS011;11279;48.364;10.904;2024-01-15T02:42:20;24.97;;;11.47;;
22219;SDS011;11279;48.364;10.904;2024-01-15T02:43:21;21.97;;;10.30;;
22219;SDS011;11279;48.364;10.904;2024-01-15T02:44:21;22.30;;;10.83;;
22219;SDS011;11279;48.364;10.904;2024-01-15T02:45:22;22.33;;;10.33;;
22219;SDS011;11279;48.364;10.904;2024-01-15T02:46:23;24.48;;;10.93;;
22219;SDS011;11279;48.364;10.904;2024-01-15T02:47:23;24.30;;;10.57;;
22219;SDS011;11279;48.364;10.904;2024-01-15T02:48:24;24.73;;;10.47;;
22219;SDS011;11279;48.364;10.904;2024-01-15T02:49:24;21.20;;;9.77;;
22219;SDS011;11279;48.364;10.904;2024-01-15T02:50:24;24.30;;;10.37;;
22219;SDS011;11279;48.364;10.904;2024-01-15T02:51:25;23.17;;;10.47;;
22219;SDS011;11279;48.364;10.904;2024-01-15T02:52:25;24.07;;;10.57;;
22219;SDS011;11279;48.364;10.904;2024-01-15T02:53:26;21.27;;;9.93;;
22219;SDS011;11279;48.364;10.904;2024-01-15T02:54:26;21.70;;;10.50;;
22219;SDS011;11279;48.364;10.904;2024-01-15T02:55:27;23.73;;;9.60;;
22219;SDS011;11279;48.364;10.904;2024-01-15T02:56:29;23.08;;;10.13;;
22219;SDS011;11279;48.364;10.904;2024-01-15T02:57:29;24.60;;;10.73;;
22219;SDS011;11279;48.364;10.904;2024-01-15T02:58:30;22.83;;;10.23;;
22219;SDS011;11279;48.364;10.904;2024-01-15T02:59:31;20.00;;;9.60;;
22219;SDS011;11279;48.364;10.904;2024-01-15T03:00:31;19.27;;;9.77;;
22219;SDS011;11279;48.364;10.904;2024-01-15T03:01:31;22.87;;;9.63;;
22219;SDS011;11279;48.364;10.904;2024-01-15T03:02:32;24.43;;;10.43;;
22219;SDS011;11279;48.364;10.904;2024-01-15T03:03:32;25.33;;;10.37;;
22219;SDS011;11279;48.364;10.904;2024-01-15T03:04:33;23.73;;;10.53;;
22219;SDS011;11279;48.364;10.904;2024-01-15T03:05:33;22.20;;;9.50;;
22219;SDS011;11279;48.364;10.904;2024-01-15T03:06:34;23.57;;;10.87;;
22219;SDS011;11279;48.364;10.904;2024-01-15T03:07:34;23.07;;;9.80;;
22219;SDS011;11279;48.364;10.904;2024-01-15T03:08:35;19.00;;;9.57;;
22219;SDS011;11279;48.364;10.904;2024-01-15T03:09:36;22.27;;;9.60;;
22219;SDS011;11279;48.364;10.904;2024-01-15T03:10:36;21.47;;;9.50;;
22219;SDS011;11279;48.364;10.904;2024-01-15T03:11:37;20.80;;;9.50;;
22219;SDS011;11279;48.364;10.904;2024-01-15T03:12:39;21.90;;;9.35;;
22219;SDS011;11279;48.364;10.904;2024-01-15T03:13:39;20.37;;;8.33;;
22219;SDS011;11279;48.364;10.904;2024-01-15T03:14:39;21.73;;;9.70;;
22219;SDS011;11279;48.364;10.904;2024-01-15T03:15:40;19.93;;;9.83;;
22219;SDS011;11279;48.364;10.904;2024-01-15T03:16:40;21.50;;;9.37;;
22219;SDS011;11279;48.364;10.904;2024-01-15T03:17:41;18.10;;;8.70;;
22219;SDS011;11279;48.364;10.904;2024-01-15T03:18:45;21.27;;;9.60;;
22219;SDS011;11279;48.364;10.904;2024-01-15T03:19:45;20.90;;;9.27;;
22219;SDS011;11279;48.364;10.904;2024-01-15T03:20:46;23.73;;;9.93;;
22219;SDS011;11279;48.364;10.904;2024-01-15T03:21:46;20.10;;;9.60;;
22219;SDS011;11279;48.364;10.904;2024-01-15T03:22:46;22.03;;;9.07;;
22219;SDS011;11279;48.364;10.904;2024-01-15T03:23:47;21.43;;;9.03;;
22219;SDS011;11279;48.364;10.904;2024-01-15T03:24:47;19.30;;;8.47;;
22219;SDS011;11279;48.364;10.904;2024-01-15T03:25:48;18.10;;;8.50;;
22219;SDS011;11279;48.364;10.904;2024-01-15T03:26:49;18.00;;;8.98;;
22219;SDS011;11279;48.364;10.904;2024-01-15T03:27:49;17.90;;;8.30;;
22219;SDS011;11279;48.364;10.904;2024-01-15T03:28:50;20.93;;;9.60;;
22219;SDS011;11279;48.364;10.904;2024-01-15T03:29:50;20.77;;;8.93;;
22219;SDS011;11279;48.364;10.904;2024-01-15T03:30:50;19.97;;;9.63;;
22219;SDS011;11279;48.364;10.904;2024-01-15T03:31:51;19.83;;;9.57;;
22219;SDS011;11279;48.364;10.904;2024-01-15T03:32:51;20.60;;;9.47;;
22219;SDS011;11279;48.364;10.904;2024-01-15T03:33:52;22.33;;;9.63;;
22219;SDS011;11279;48.364;10.904;2024-01-15T03:34:52;21.73;;;9.47;;
22219;SDS011;11279;48.364;10.904;2024-01-15T03:35:53;19.57;;;9.10;;
22219;SDS011;11279;48.364;10.904;2024-01-15T03:36:53;19.10;;;8.83;;
22219;SDS011;11279;48.364;10.904;2024-01-15T03:37:53;20.73;;;10.07;;
22219;SDS011;11279;48.364;10.904;2024-01-15T03:38:54;19.77;;;9.20;;
22219;SDS011;11279;48.364;10.904;2024-01-15T03:39:54;19.30;;;9.17;;
22219;SDS011;11279;48.364;10.904;2024-01-15T03:40:55;22.03;;;10.03;;
22219;SDS011;11279;48.364;10.904;2024-01-15T03:41:55;21.83;;;8.77;;
22219;SDS011;11279;48.364;10.904;2024-01-15T03:42:55;18.73;;;9.00;;
22219;SDS011;11279;48.364;10.904;2024-01-15T03:43:56;21.63;;;9.50;;
22219;SDS011;11279;48.364;10.904;2024-01-15T03:44:56;19.40;;;9.43;;
22219;SDS011;11279;48.364;10.904;2024-01-15T03:45:57;21.70;;;9.37;;
22219;SDS011;11279;48.364;10.904;2024-01-15T03:46:57;20.00;;;9.60;;
22219;SDS011;11279;48.364;10.904;2024-01-15T03:47:58;19.77;;;9.80;;
22219;SDS011;11279;48.364;10.904;2024-01-15T03:48:58;22.17;;;9.33;;
22219;SDS011;11279;48.364;10.904;2024-01-15T03:49:59;19.43;;;9.00;;
22219;SDS011;11279;48.364;10.904;2024-01-15T03:50:59;18.97;;;8.87;;
22219;SDS011;11279;48.364;10.904;2024-01-15T03:52:00;18.73;;;8.53;;
22219;SDS011;11279;48.364;10.904;2024-01-15T03:53:00;21.30;;;9.60;;
22219;SDS011;11279;48.364;10.904;2024-01-15T03:54:01;20.37;;;8.87;;
22219;SDS011;11279;48.364;10.904;2024-01-15T03:55:01;19.03;;;8.17;;
22219;SDS011;11279;48.364;10.904;2024-01-15T03:56:03;19.42;;;8.70;;
22219;SDS011;11279;48.364;10.904;2024-01-15T03:57:04;21.37;;;9.70;;
22219;SDS011;11279;48.364;10.904;2024-01-15T03:58:04;19.53;;;8.70;;
22219;SDS011;11279;48.364;10.904;2024-01-15T03:59:05;18.47;;;9.30;;
22219;SDS011;11279;48.364;10.904;2024-01-15T04:00:06;21.90;;;9.33;;
22219;SDS011;11279;48.364;10.904;2024-01-15T04:01:08;20.33;;;8.98;;
22219;SDS011;11279;48.364;10.904;2024-01-15T04:02:11;24.13;;;10.40;;
22219;SDS011;11279;48.364;10.904;2024-01-15T04:03:12;22.07;;;9.90;;
22219;SDS011;11279;48.364;10.904;2024-01-15T04:04:12;20.57;;;9.60;;
22219;SDS011;11279;48.364;10.904;2024-01-15T04:05:12;21.27;;;9.73;;
22219;SDS011;11279;48.364;10.904;2024-01-15T04:06:13;20.27;;;9.23;;
22219;SDS011;11279;48.364;10.904;2024-01-15T04:07:13;20.73;;;9.07;;
22219;SDS011;11279;48.364;10.904;2024-01-15T04:08:14;19.50;;;8.27;;
22219;SDS011;11279;48.364;10.904;2024-01-15T04:09:14;21.33;;;9.33;;
22219;SDS011;11279;48.364;10.904;2024-01-15T04:10:15;20.43;;;9.00;;
22219;SDS011;11279;48.364;10.904;2024-01-15T04:11:15;19.93;;;9.37;;
22219;SDS011;11279;48.364;10.904;2024-01-15T04:12:16;18.53;;;8.83;;
22219;SDS011;11279;48.364;10.904;2024-01-15T04:13:16;19.33;;;8.77;;
22219;SDS011;11279;48.364;10.904;2024-01-15T04:14:16;19.43;;;8.50;;
22219;SDS011;11279;48.364;10.904;2024-01-15T04:15:17;21.50;;;9.93;;
22219;SDS011;11279;48.364;10.904;2024-01-15T04:16:18;18.23;;;8.80;;
22219;SDS011;11279;48.364;10.904;2024-01-15T04:17:19;19.08;;;9.05;;
22219;SDS011;11279;48.364;10.904;2024-01-15T04:18:19;19.30;;;8.97;;
22219;SDS011;11279;48.364;10.904;2024-01-15T04:19:20;20.27;;;8.70;;
22219;SDS011;11279;48.364;10.904;2024-01-15T04:20:20;22.30;;;8.80;;
22219;SDS011;11279;48.364;10.904;2024-01-15T04:21:20;20.17;;;9.53;;
22219;SDS011;11279;48.364;10.904;2024-01-15T04:22:21;21.33;;;9.53;;
22219;SDS011;11279;48.364;10.904;2024-01-15T04:23:21;18.50;;;8.63;;
22219;SDS011;11279;48.364;10.904;2024-01-15T04:24:22;19.63;;;9.00;;
22219;SDS011;11279;48.364;10.904;2024-01-15T04:25:23;17.10;;;7.83;;
22219;SDS011;11279;48.364;10.904;2024-01-15T04:26:23;19.07;;;9.23;;
22219;SDS011;11279;48.364;10.904;2024-01-15T04:27:24;18.47;;;9.07;;
22219;SDS011;11279;48.364;10.904;2024-01-15T04:28:24;18.43;;;8.43;;
22219;SDS011;11279;48.364;10.904;2024-01-15T04:29:24;19.23;;;8.67;;
22219;SDS011;11279;48.364;10.904;2024-01-15T04:30:25;23.53;;;8.73;;
22219;SDS011;11279;48.364;10.904;2024-01-15T04:31:25;19.67;;;8.67;;
22219;SDS011;11279;48.364;10.904;2024-01-15T04:32:27;19.70;;;7.80;;
22219;SDS011;11279;48.364;10.904;2024-01-15T04:33:27;19.97;;;8.67;;
22219;SDS011;11279;48.364;10.904;2024-01-15T04:34:27;16.63;;;8.27;;
22219;SDS011;11279;48.364;10.904;2024-01-15T04:35:28;17.53;;;8.30;;
22219;SDS011;11279;48.364;10.904;2024-01-15T04:36:28;17.43;;;8.27;;
22219;SDS011;11279;48.364;10.904;2024-01-15T04:37:29;17.73;;;7.63;;
22219;SDS011;11279;48.364;10.904;2024-01-15T04:38:29;19.93;;;8.37;;
22219;SDS011;11279;48.364;10.904;2024-01-15T04:39:30;18.80;;;8.47;;
22219;SDS011;11279;48.364;10.904;2024-01-15T04:40:30;18.23;;;8.70;;
22219;SDS011;11279;48.364;10.904;2024-01-15T04:41:31;17.53;;;8.30;;
22219;SDS011;11279;48.364;10.904;2024-01-15T04:42:31;17.37;;;7.50;;
22219;SDS011;11279;48.364;10.904;2024-01-15T04:43:31;16.20;;;7.73;;
22219;SDS011;11279;48.364;10.904;2024-01-15T04:44:32;17.80;;;8.50;;
22219;SDS011;11279;48.364;10.904;2024-01-15T04:45:32;18.30;;;8.00;;
22219;SDS011;11279;48.364;10.904;2024-01-15T04:46:33;18.67;;;8.83;;
22219;SDS011;11279;48.364;10.904;2024-01-15T04:47:33;18.90;;;8.70;;
22219;SDS011;11279;48.364;10.904;2024-01-15T04:48:34;16.63;;;7.53;;
22219;SDS011;11279;48.364;10.904;2024-01-15T04:49:34;17.50;;;8.00;;
22219;SDS011;11279;48.364;10.904;2024-01-15T04:50:34;19.97;;;8.60;;
22219;SDS011;11279;48.364;10.904;2024-01-15T04:51:35;18.97;;;8.13;;
22219;SDS011;11279;48.364;10.904;2024-01-15T04:52:35;16.60;;;7.97;;
22219;SDS011;11279;48.364;10.904;2024-01-15T04:53:36;16.50;;;7.70;;
22219;SDS011;11279;48.364;10.904;2024-01-15T04:54:36;16.20;;;7.30;;
22219;SDS011;11279;48.364;10.904;2024-01-15T04:55:36;15.77;;;7.27;;
22219;SDS011;11279;48.364;10.904;2024-01-15T04:56:37;17.87;;;7.97;;
22219;SDS011;11279;48.364;10.904;2024-01-15T04:57:37;16.97;;;7.40;;
22219;SDS011;11279;48.364;10.904;2024-01-15T04:58:38;17.03;;;8.00;;
22219;SDS011;11279;48.364;10.904;2024-01-15T04:59:38;18.57;;;7.63;;
22219;SDS011;11279;48.364;10.904;2024-01-15T05:00:39;19.20;;;8.10;;
22219;SDS011;11279;48.364;10.904;2024-01-15T05:01:40;18.03;;;8.23;;
22219;SDS011;11279;48.364;10.904;2024-01-15T05:02:40;18.37;;;7.40;;
22219;SDS011;11279;48.364;10.904;2024-01-15T05:03:41;16.50;;;7.07;;
22219;SDS011;11279;48.364;10.904;2024-01-15T05:04:41;15.70;;;6.87;;
22219;SDS011;11279;48.364;10.904;2024-01-15T05:05:42;18.47;;;7.40;;
22219;SDS011;11279;48.364;10.904;2024-01-15T05:06:42;15.90;;;7.30;;
22219;SDS011;11279;48.364;10.904;2024-01-15T05:07:42;19.37;;;6.93;;
22219;SDS011;11279;48.364;10.904;2024-01-15T05:08:43;15.53;;;7.50;;
22219;SDS011;11279;48.364;10.904;2024-01-15T05:09:43;14.57;;;6.90;;
22219;SDS011;11279;48.364;10.904;2024-01-15T05:10:44;15.07;;;6.83;;
22219;SDS011;11279;48.364;10.904;2024-01-15T05:11:45;17.10;;;6.53;;
22219;SDS011;11279;48.364;10.904;2024-01-15T05:12:45;15.97;;;7.30;;
22219;SDS011;11279;48.364;10.904;2024-01-15T05:13:45;14.33;;;6.87;;
22219;SDS011;11279;48.364;10.904;2024-01-15T05:14:46;14.27;;;6.53;;
22219;SDS011;11279;48.364;10.904;2024-01-15T05:15:46;15.47;;;6.47;;
22219;SDS011;11279;48.364;10.904;2024-01-15T05:16:47;19.23;;;6.83;;
22219;SDS011;11279;48.364;10.904;2024-01-15T05:17:48;15.55;;;6.88;;
22219;SDS011;11279;48.364;10.904;2024-01-15T05:18:49;16.40;;;6.60;;
22219;SDS011;11279;48.364;10.904;2024-01-15T05:19:49;16.27;;;6.30;;
22219;SDS011;11279;48.364;10.904;2024-01-15T05:20:49;15.53;;;6.37;;
22219;SDS011;11279;48.364;10.904;2024-01-15T05:21:50;15.37;;;6.67;;
22219;SDS011;11279;48.364;10.904;2024-01-15T05:22:50;18.33;;;6.33;;
22219;SDS011;11279;48.364;10.904;2024-01-15T05:23:51;16.63;;;6.90;;
22219;SDS011;11279;48.364;10.904;2024-01-15T05:24:51;15.10;;;6.67;;
22219;SDS011;11279;48.364;10.904;2024-01-15T05:25:52;16.00;;;7.10;;
22219;SDS011;11279;48.364;10.904;2024-01-15T05:26:52;16.37;;;6.60;;
22219;SDS011;11279;48.364;10.904;2024-01-15T05:27:52;16.97;;;7.03;;
22219;SDS011;11279;48.364;10.904;2024-01-15T05:28:53;13.87;;;6.47;;
22219;SDS011;11279;48.364;10.904;2024-01-15T05:29:53;15.10;;;6.37;;
22219;SDS011;11279;48.364;10.904;2024-01-15T05:30:54;15.57;;;6.10;;
22219;SDS011;11279;48.364;10.904;2024-01-15T05:31:55;13.65;;;6.45;;
22219;SDS011;11279;48.364;10.904;2024-01-15T05:32:56;15.87;;;6.40;;
22219;SDS011;11279;48.364;10.904;2024-01-15T05:33:57;19.17;;;7.53;;
22219;SDS011;11279;48.364;10.904;2024-01-15T05:34:58;16.87;;;7.80;;
22219;SDS011;11279;48.364;10.904;2024-01-15T05:35:58;15.10;;;6.90;;
22219;SDS011;11279;48.364;10.904;2024-01-15T05:36:59;13.03;;;6.20;;
22219;SDS011;11279;48.364;10.904;2024-01-15T05:38:00;14.70;;;6.77;;
22219;SDS011;11279;48.364;10.904;2024-01-15T05:39:00;17.53;;;7.27;;
22219;SDS011;11279;48.364;10.904;2024-01-15T05:40:01;14.63;;;6.37;;
22219;SDS011;11279;48.364;10.904;2024-01-15T05:41:01;13.23;;;6.93;;
22219;SDS011;11279;48.364;10.904;2024-01-15T05:42:02;18.98;;;6.85;;
22219;SDS011;11279;48.364;10.904;2024-01-15T05:43:03;15.53;;;6.67;;
22219;SDS011;11279;48.364;10.904;2024-01-15T05:44:03;13.57;;;5.80;;
22219;SDS011;11279;48.364;10.904;2024-01-15T05:45:04;14.13;;;6.40;;
22219;SDS011;11279;48.364;10.904;2024-01-15T05:46:05;13.93;;;6.57;;
22219;SDS011;11279;48.364;10.904;2024-01-15T05:47:05;14.90;;;6.27;;
22219;SDS011;11279;48.364;10.904;2024-01-15T05:48:06;14.53;;;6.30;;
22219;SDS011;11279;48.364;10.904;2024-01-15T05:49:06;16.23;;;6.93;;
22219;SDS011;11279;48.364;10.904;2024-01-15T05:50:07;14.33;;;6.00;;
22219;SDS011;11279;48.364;10.904;2024-01-15T05:51:08;16.40;;;6.75;;
22219;SDS011;11279;48.364;10.904;2024-01-15T05:52:09;14.17;;;5.90;;